createdAt,value
2018-02-18T00:02:03.311Z,49.28
2018-02-18T00:04:30.447Z,53.28
2018-02-18T00:06:57.896Z,49.30
2018-02-18T00:09:24.407Z,47.85
2018-02-18T00:11:50.928Z,50.70
2018-02-18T00:14:18.512Z,48.75
2018-02-18T00:16:45.298Z,52.17
2018-02-18T00:19:12.435Z,71.90
2018-02-18T00:21:38.948Z,110.45
2018-02-18T00:24:06.342Z,110.25
2018-02-18T00:26:32.881Z,136.95
2018-02-18T00:28:59.253Z,114.20
2018-02-18T00:31:25.996Z,114.32
2018-02-18T00:33:52.476Z,111.68
2018-02-18T00:36:19.321Z,121.72
2018-02-18T00:38:46.087Z,118.18
2018-02-18T00:41:13.014Z,103.85
2018-02-18T00:43:39.901Z,104.07
2018-02-18T00:46:06.408Z,98.95
2018-02-18T00:48:33.230Z,105.97
2018-02-18T00:51:00.113Z,95.22
2018-02-18T00:53:26.656Z,90.18
2018-02-18T00:55:54.124Z,106.35
2018-02-18T00:58:20.540Z,102.60
2018-02-18T01:00:47.008Z,102.80
2018-02-18T01:03:13.989Z,108.15
2018-02-18T01:05:40.590Z,104.53
2018-02-18T01:08:07.661Z,96.22
2018-02-18T01:10:34.021Z,90.80
2018-02-18T01:13:01.035Z,92.50
2018-02-18T01:15:27.877Z,93.78
2018-02-18T01:17:54.725Z,99.32
2018-02-18T01:20:21.487Z,102.80
2018-02-18T01:22:48.135Z,100.95
2018-02-18T01:25:14.632Z,99.72
2018-02-18T01:27:41.536Z,101.25
2018-02-18T01:30:08.320Z,89.22
2018-02-18T01:32:34.851Z,98.43
2018-02-18T01:35:02.028Z,91.78
2018-02-18T01:37:28.835Z,91.82
2018-02-18T01:39:55.748Z,97.65
2018-02-18T01:42:22.282Z,92.00
2018-02-18T01:44:49.064Z,94.13
2018-02-18T01:47:15.604Z,95.45
2018-02-18T01:49:42.428Z,97.43
2018-02-18T01:52:09.041Z,87.82
2018-02-18T01:54:35.569Z,96.82
2018-02-18T01:57:02.112Z,89.50
2018-02-18T01:59:28.921Z,81.35
2018-02-18T02:01:56.048Z,94.32
2018-02-18T02:04:22.582Z,92.75
2018-02-18T02:06:49.120Z,93.03
2018-02-18T02:09:15.652Z,91.12
2018-02-18T02:11:42.548Z,98.37
2018-02-18T02:14:10.026Z,87.10
2018-02-18T02:16:36.476Z,91.68
2018-02-18T02:19:03.028Z,78.47
2018-02-18T02:21:29.593Z,79.05
2018-02-18T02:23:56.095Z,84.43
2018-02-18T02:26:23.004Z,79.53
2018-02-18T02:28:49.457Z,87.55
2018-02-18T02:31:16.044Z,83.07
2018-02-18T02:33:42.893Z,84.78
2018-02-18T02:36:11.685Z,85.50
2018-02-18T02:38:38.715Z,82.30
2018-02-18T02:41:05.109Z,84.30
2018-02-18T02:43:32.141Z,84.60
2018-02-18T02:45:59.209Z,82.22
2018-02-18T02:48:27.344Z,82.00
2018-02-18T02:50:55.044Z,80.32
2018-02-18T02:53:22.484Z,85.82
2018-02-18T02:55:49.337Z,76.30
2018-02-18T02:58:15.728Z,87.18
2018-02-18T03:00:42.778Z,85.15
2018-02-18T03:03:09.563Z,82.60
2018-02-18T03:05:36.392Z,87.40
2018-02-18T03:08:02.811Z,80.72
2018-02-18T03:10:30.086Z,81.53
2018-02-18T03:12:56.813Z,82.45
2018-02-18T03:15:23.637Z,82.40
2018-02-18T03:17:50.820Z,80.05
2018-02-18T03:20:17.499Z,77.90
2018-02-18T03:22:46.145Z,70.00
2018-02-18T03:25:12.534Z,73.70
2018-02-18T03:27:39.582Z,74.37
2018-02-18T03:30:06.154Z,71.03
2018-02-18T03:32:33.331Z,76.37
2018-02-18T03:34:59.701Z,75.25
2018-02-18T03:37:26.332Z,77.78
2018-02-18T03:39:53.116Z,75.85
2018-02-18T03:42:19.639Z,73.45
2018-02-18T03:44:46.548Z,77.70
2018-02-18T03:47:13.316Z,73.05
2018-02-18T03:49:39.907Z,70.05
2018-02-18T03:52:08.636Z,76.85
2018-02-18T03:54:35.011Z,75.90
2018-02-18T03:57:01.632Z,69.18
2018-02-18T03:59:30.304Z,71.95
2018-02-18T04:01:56.952Z,69.15
2018-02-18T04:04:23.372Z,68.12
2018-02-18T04:06:53.118Z,60.65
2018-02-18T04:09:20.777Z,70.03
2018-02-18T04:11:47.584Z,74.07
2018-02-18T04:14:14.437Z,65.28
2018-02-18T04:16:40.963Z,66.10
2018-02-18T04:19:07.564Z,67.10
2018-02-18T04:21:34.355Z,74.62
2018-02-18T04:24:00.993Z,70.07
2018-02-18T04:26:27.408Z,68.15
2018-02-18T04:28:53.944Z,61.22
2018-02-18T04:31:21.090Z,68.78
2018-02-18T04:33:47.941Z,80.43
2018-02-18T04:36:14.551Z,83.22
2018-02-18T04:38:41.312Z,91.70
2018-02-18T04:41:08.272Z,93.28
2018-02-18T04:43:34.692Z,88.12
2018-02-18T04:46:03.706Z,70.87
2018-02-18T04:48:32.174Z,76.72
2018-02-18T04:50:58.608Z,69.35
2018-02-18T04:53:27.600Z,67.53
2018-02-18T04:55:54.872Z,71.62
2018-02-18T04:58:22.616Z,76.00
2018-02-18T05:00:49.998Z,77.12
2018-02-18T05:03:16.872Z,70.22
2018-02-18T05:05:43.652Z,72.90
2018-02-18T05:08:10.196Z,98.35
2018-02-18T05:10:37.038Z,70.95
2018-02-18T05:13:03.408Z,73.37
2018-02-18T05:15:29.851Z,66.47
2018-02-18T05:17:56.631Z,70.97
2018-02-18T05:20:23.225Z,72.15
2018-02-18T05:22:50.636Z,68.55
2018-02-18T05:25:21.455Z,77.25
2018-02-18T05:27:47.981Z,68.65
2018-02-18T05:30:15.144Z,75.00
2018-02-18T05:32:42.037Z,71.72
2018-02-18T05:35:10.094Z,63.63
2018-02-18T05:37:36.541Z,73.05
2018-02-18T05:40:03.436Z,72.45
2018-02-18T05:42:29.968Z,65.82
2018-02-18T05:44:56.518Z,79.32
2018-02-18T05:47:23.039Z,76.93
2018-02-18T05:49:49.634Z,72.00
2018-02-18T05:52:16.112Z,65.68
2018-02-18T05:54:45.100Z,73.40
2018-02-18T05:57:11.924Z,76.22
2018-02-18T05:59:38.737Z,73.55
2018-02-18T06:02:05.735Z,71.05
2018-02-18T06:04:33.115Z,72.15
2018-02-18T06:06:59.737Z,73.40
2018-02-18T06:09:29.624Z,70.07
2018-02-18T06:11:56.076Z,72.00
2018-02-18T06:14:22.629Z,74.18
2018-02-18T06:16:49.392Z,80.62
2018-02-18T06:19:16.995Z,86.57
2018-02-18T06:21:45.602Z,66.35
2018-02-18T06:24:12.093Z,73.47
2018-02-18T06:26:38.676Z,76.07
2018-02-18T06:29:07.348Z,94.95
2018-02-18T06:31:34.257Z,97.62
2018-02-18T06:34:00.754Z,79.18
2018-02-18T06:36:27.672Z,92.30
2018-02-18T06:38:56.083Z,83.43
2018-02-18T06:41:22.520Z,71.45
2018-02-18T06:43:49.416Z,68.62
2018-02-18T06:46:16.555Z,70.07
2018-02-18T06:48:43.316Z,80.43
2018-02-18T06:51:10.491Z,71.78
2018-02-18T06:53:37.037Z,62.83
2018-02-18T06:56:03.912Z,68.70
2018-02-18T06:58:30.384Z,62.90
2018-02-18T07:00:56.788Z,53.20
2018-02-18T07:03:23.751Z,55.08
2018-02-18T07:05:50.612Z,58.13
2018-02-18T07:08:17.508Z,55.12
2018-02-18T07:10:43.886Z,53.00
2018-02-18T07:13:10.511Z,57.62
2018-02-18T07:15:37.365Z,54.80
2018-02-18T07:18:04.256Z,57.13
2018-02-18T07:20:31.126Z,52.97
2018-02-18T07:22:58.252Z,53.53
2018-02-18T07:25:24.791Z,54.58
2018-02-18T07:27:53.169Z,56.30
2018-02-18T07:30:20.002Z,58.35
2018-02-18T07:32:46.798Z,57.95
2018-02-18T07:35:13.324Z,54.72
2018-02-18T07:37:39.862Z,57.92
2018-02-18T07:40:06.612Z,60.90
2018-02-18T07:42:33.241Z,68.12
2018-02-18T07:45:01.950Z,69.80
2018-02-18T07:47:28.754Z,72.15
2018-02-18T07:49:55.912Z,76.00
2018-02-18T07:52:25.693Z,72.50
2018-02-18T07:54:52.448Z,73.50
2018-02-18T07:57:20.194Z,69.95
2018-02-18T07:59:48.216Z,65.37
2018-02-18T08:02:14.986Z,63.70
2018-02-18T08:04:42.020Z,61.30
2018-02-18T08:07:09.043Z,58.47
2018-02-18T08:09:35.872Z,56.65
2018-02-18T08:14:52.036Z,58.78
2018-02-18T08:17:20.124Z,58.25
2018-02-18T08:19:46.518Z,54.75
2018-02-18T08:22:17.138Z,66.85
2018-02-18T08:24:43.909Z,52.30
2018-02-18T08:27:10.508Z,50.63
2018-02-18T08:29:37.256Z,52.05
2018-02-18T08:32:04.240Z,52.35
2018-02-18T08:34:30.732Z,54.42
2018-02-18T08:36:57.876Z,57.62
2018-02-18T08:39:25.403Z,55.30
2018-02-18T08:41:51.894Z,54.95
2018-02-18T08:44:18.721Z,56.10
2018-02-18T08:46:45.117Z,53.50
2018-02-18T08:49:12.392Z,55.03
2018-02-18T08:51:41.132Z,53.78
2018-02-18T08:54:08.005Z,54.42
2018-02-18T08:56:35.753Z,53.58
2018-02-18T08:59:02.878Z,50.22
2018-02-18T09:01:29.655Z,54.15
2018-02-18T09:03:56.056Z,57.38
2018-02-18T09:06:22.740Z,53.47
2018-02-18T09:08:49.936Z,53.17
2018-02-18T09:11:16.743Z,53.60
2018-02-18T09:13:44.063Z,49.80
2018-02-18T09:16:11.044Z,46.25
2018-02-18T09:18:38.032Z,40.97
2018-02-18T09:21:05.052Z,45.22
2018-02-18T09:23:31.646Z,46.75
2018-02-18T09:25:58.752Z,43.78
2018-02-18T09:28:28.828Z,43.97
2018-02-18T09:30:55.895Z,47.47
2018-02-18T09:33:23.698Z,39.47
2018-02-18T09:35:51.361Z,45.78
2018-02-18T09:38:17.898Z,42.53
2018-02-18T09:40:44.873Z,44.38
2018-02-18T09:43:11.953Z,46.97
2018-02-18T09:45:38.434Z,38.25
2018-02-18T09:48:04.925Z,39.17
2018-02-18T09:50:32.372Z,35.83
2018-02-18T09:52:59.235Z,34.75
2018-02-18T09:55:26.369Z,37.83
2018-02-18T09:57:55.004Z,40.85
2018-02-18T10:00:21.998Z,38.03
2018-02-18T10:02:48.448Z,32.13
2018-02-18T10:05:14.840Z,32.67
2018-02-18T10:07:41.796Z,36.30
2018-02-18T10:10:08.348Z,34.85
2018-02-18T10:12:35.261Z,37.10
2018-02-18T10:15:01.776Z,34.30
2018-02-18T10:17:28.398Z,35.45
2018-02-18T10:19:55.787Z,33.33
2018-02-18T10:22:23.365Z,35.17
2018-02-18T10:24:50.007Z,33.03
2018-02-18T10:27:16.547Z,33.05
2018-02-18T10:29:43.068Z,40.17
2018-02-18T10:32:09.520Z,34.70
2018-02-18T10:34:35.970Z,36.42
2018-02-18T10:37:02.784Z,32.53
2018-02-18T10:39:29.307Z,33.53
2018-02-18T10:41:56.560Z,35.85
2018-02-18T10:44:23.329Z,35.72
2018-02-18T10:46:50.370Z,35.55
2018-02-18T10:49:17.089Z,41.28
2018-02-18T10:51:43.949Z,40.17
2018-02-18T10:54:10.453Z,37.70
2018-02-18T10:56:37.405Z,39.10
2018-02-18T10:59:03.931Z,33.90
2018-02-18T11:01:31.804Z,34.40
2018-02-18T11:03:58.612Z,35.08
2018-02-18T11:06:25.092Z,40.35
2018-02-18T11:08:51.894Z,35.63
2018-02-18T11:11:18.846Z,35.28
2018-02-18T11:13:45.325Z,39.20
2018-02-18T11:16:12.768Z,38.80
2018-02-18T11:18:39.689Z,39.90
2018-02-18T11:21:07.832Z,39.63
2018-02-18T11:23:34.888Z,37.03
2018-02-18T11:26:01.458Z,41.33
2018-02-18T11:28:28.078Z,38.58
2018-02-18T11:30:54.495Z,38.33
2018-02-18T11:33:21.274Z,39.65
2018-02-18T11:35:50.041Z,37.88
2018-02-18T11:38:16.828Z,37.50
2018-02-18T11:40:43.746Z,42.97
2018-02-18T11:43:11.115Z,38.75
2018-02-18T11:45:37.704Z,39.58
2018-02-18T11:48:04.543Z,40.83
2018-02-18T11:50:32.229Z,40.38
2018-02-18T11:53:02.092Z,41.92
2018-02-18T11:55:28.547Z,41.25
2018-02-18T11:57:55.908Z,43.47
2018-02-18T12:00:24.564Z,47.08
2018-02-18T12:02:51.398Z,39.47
2018-02-18T12:05:20.163Z,42.55
2018-02-18T12:07:47.509Z,42.72
2018-02-18T12:10:14.956Z,40.12
2018-02-18T12:12:41.922Z,37.83
2018-02-18T12:15:13.560Z,38.10
2018-02-18T12:17:40.481Z,42.15
2018-02-18T12:20:08.236Z,42.80
2018-02-18T12:22:34.784Z,43.30
2018-02-18T12:25:02.568Z,39.67
2018-02-18T12:27:29.048Z,43.80
2018-02-18T12:29:55.924Z,120.87
2018-02-18T12:32:24.616Z,46.92
2018-02-18T12:34:51.683Z,51.65
2018-02-18T12:37:18.637Z,42.78
2018-02-18T12:39:46.145Z,40.12
2018-02-18T12:42:13.449Z,44.70
2018-02-18T12:44:40.013Z,45.05
2018-02-18T12:47:06.510Z,41.47
2018-02-18T12:49:33.364Z,40.90
2018-02-18T12:52:00.216Z,45.53
2018-02-18T12:54:26.808Z,47.25
2018-02-18T12:56:54.499Z,45.58
2018-02-18T12:59:20.965Z,43.97
2018-02-18T13:01:50.036Z,46.05
2018-02-18T13:04:17.817Z,43.00
2018-02-18T13:06:44.239Z,42.97
2018-02-18T13:09:11.494Z,40.83
2018-02-18T13:11:38.563Z,41.97
2018-02-18T13:14:06.621Z,47.50
2018-02-18T13:16:34.520Z,38.75
2018-02-18T13:19:01.380Z,38.92
2018-02-18T13:21:27.827Z,39.97
2018-02-18T13:23:55.057Z,36.45
2018-02-18T13:26:21.524Z,38.17
2018-02-18T13:28:48.136Z,37.88
2018-02-18T13:31:14.691Z,36.25
2018-02-18T13:33:42.371Z,41.08
2018-02-18T13:36:11.048Z,35.17
2018-02-18T13:38:37.576Z,37.85
2018-02-18T13:41:03.964Z,39.30
2018-02-18T13:43:31.312Z,42.90
2018-02-18T13:46:00.825Z,38.63
2018-02-18T13:48:27.984Z,42.40
2018-02-18T13:50:54.605Z,47.10
2018-02-18T13:53:24.474Z,40.88
2018-02-18T13:55:51.656Z,50.97
2018-02-18T13:58:18.537Z,43.15
2018-02-18T14:00:45.604Z,50.03
2018-02-18T14:03:12.081Z,39.30
2018-02-18T14:05:39.378Z,43.30
2018-02-18T14:08:06.438Z,43.72
2018-02-18T14:10:33.277Z,49.30
2018-02-18T14:13:00.456Z,44.38
2018-02-18T14:15:28.232Z,43.85
2018-02-18T14:17:54.744Z,44.13
2018-02-18T14:20:21.638Z,45.53
2018-02-18T14:22:48.440Z,37.55
2018-02-18T14:25:16.510Z,40.60
2018-02-18T14:27:50.528Z,39.38
2018-02-18T14:30:17.538Z,40.95
2018-02-18T14:32:49.470Z,40.40
2018-02-18T14:35:17.680Z,40.60
2018-02-18T14:37:44.587Z,36.85
2018-02-18T14:40:11.369Z,36.08
2018-02-18T14:42:51.654Z,39.28
2018-02-18T14:45:30.380Z,41.90
2018-02-18T14:48:10.315Z,34.53
2018-02-18T14:50:49.988Z,42.50
2018-02-18T14:53:28.811Z,37.97
2018-02-18T14:58:52.785Z,37.50
2018-02-18T15:01:19.806Z,46.37
2018-02-18T15:03:46.392Z,45.92
2018-02-18T15:06:15.086Z,46.90
2018-02-18T15:08:42.798Z,38.80
2018-02-18T15:11:09.703Z,40.22
2018-02-18T15:13:36.787Z,45.25
2018-02-18T15:16:03.336Z,41.95
2018-02-18T15:18:30.096Z,36.70
2018-02-18T15:20:58.216Z,45.70
2018-02-18T15:23:25.911Z,36.17
2018-02-18T15:25:52.585Z,42.80
2018-02-18T15:28:20.653Z,44.28
2018-02-18T15:30:47.105Z,43.00
2018-02-18T15:33:13.973Z,40.58
2018-02-18T15:35:40.813Z,47.55
2018-02-18T15:38:07.358Z,50.88
2018-02-18T15:40:35.116Z,49.75
2018-02-18T15:43:01.658Z,62.30
2018-02-18T15:45:28.176Z,64.12
2018-02-18T15:47:55.017Z,64.35
2018-02-18T15:50:21.623Z,61.00
2018-02-18T15:52:48.735Z,64.30
2018-02-18T15:55:15.236Z,62.78
2018-02-18T15:57:42.407Z,63.47
2018-02-18T16:00:09.241Z,64.43
2018-02-18T16:02:35.640Z,65.80
2018-02-18T16:05:03.317Z,69.95
2018-02-18T16:07:29.874Z,71.05
2018-02-18T16:09:56.918Z,76.82
2018-02-18T16:12:23.677Z,73.78
2018-02-18T16:14:53.755Z,75.82
2018-02-18T16:17:20.872Z,74.97
2018-02-18T16:19:47.354Z,75.03
2018-02-18T16:22:14.199Z,80.18
2018-02-18T16:24:43.293Z,80.15
2018-02-18T16:27:09.825Z,81.70
2018-02-18T16:29:37.679Z,76.68
2018-02-18T16:32:04.710Z,68.12
2018-02-18T16:34:31.188Z,72.40
2018-02-18T16:36:57.843Z,72.97
2018-02-18T16:39:24.969Z,66.80
2018-02-18T16:41:51.611Z,69.10
2018-02-18T16:44:18.450Z,61.37
2018-02-18T16:46:45.423Z,63.33
2018-02-18T16:49:11.970Z,61.33
2018-02-18T16:51:38.909Z,59.67
2018-02-18T16:54:05.326Z,60.75
2018-02-18T16:56:31.768Z,59.15
2018-02-18T16:58:58.416Z,54.90
2018-02-18T17:01:25.215Z,55.65
2018-02-18T17:03:55.407Z,68.95
2018-02-18T17:06:22.280Z,69.62
2018-02-18T17:08:49.117Z,83.60
2018-02-18T17:11:16.294Z,84.57
2018-02-18T17:13:44.360Z,77.78
2018-02-18T17:16:11.029Z,72.70
2018-02-18T17:18:38.397Z,63.78
2018-02-18T17:21:04.842Z,57.97
2018-02-18T17:23:33.184Z,53.05
2018-02-18T17:25:59.793Z,51.88
2018-02-18T17:28:27.290Z,52.78
2018-02-18T17:30:53.831Z,55.53
2018-02-18T17:33:21.307Z,62.33
2018-02-18T17:35:47.755Z,59.60
2018-02-18T17:38:14.610Z,66.75
2018-02-18T17:40:41.159Z,62.15
2018-02-18T17:43:09.832Z,59.72
2018-02-18T17:45:36.293Z,62.75
2018-02-18T17:48:02.720Z,61.30
2018-02-18T17:50:30.416Z,55.90
2018-02-18T17:52:57.814Z,53.63
2018-02-18T17:55:24.590Z,51.45
2018-02-18T17:57:51.543Z,56.05
2018-02-18T18:00:20.295Z,51.10
2018-02-18T18:02:47.081Z,54.55
2018-02-18T18:05:13.619Z,49.53
2018-02-18T18:07:41.377Z,47.40
2018-02-18T18:10:09.060Z,55.22
2018-02-18T18:12:35.444Z,48.17
2018-02-18T18:15:02.508Z,46.03
2018-02-18T18:17:31.178Z,45.47
2018-02-18T18:19:57.675Z,41.90
2018-02-18T18:22:26.091Z,41.28
2018-02-18T18:24:52.973Z,50.38
2018-02-18T18:27:19.919Z,40.03
2018-02-18T18:29:48.280Z,41.03
2018-02-18T18:32:15.628Z,43.92
2018-02-18T18:34:45.572Z,41.58
2018-02-18T18:37:12.024Z,49.55
2018-02-18T18:39:38.637Z,56.72
2018-02-18T18:42:05.400Z,61.78
2018-02-18T18:44:34.445Z,64.03
2018-02-18T18:47:01.260Z,64.12
2018-02-18T18:49:27.837Z,61.90
2018-02-18T18:51:54.600Z,65.10
2018-02-18T18:54:21.161Z,56.83
2018-02-18T18:56:48.080Z,55.35
2018-02-18T18:59:15.200Z,56.15
2018-02-18T19:01:42.016Z,48.75
2018-02-18T19:04:08.953Z,45.97
2018-02-18T19:06:35.969Z,49.95
2018-02-18T19:09:05.963Z,46.33
2018-02-18T19:11:48.937Z,42.97
2018-02-18T19:14:15.393Z,40.70
2018-02-18T19:16:42.092Z,48.58
2018-02-18T19:19:08.901Z,41.60
2018-02-18T19:21:35.535Z,43.00
2018-02-18T19:24:02.301Z,48.42
2018-02-18T19:26:36.097Z,56.50
2018-02-18T19:29:02.856Z,64.22
2018-02-18T19:31:30.503Z,74.87
2018-02-18T19:33:57.069Z,69.32
2018-02-18T19:36:23.429Z,68.80
2018-02-18T19:38:50.184Z,70.85
2018-02-18T19:41:16.712Z,67.75
2018-02-18T19:43:43.597Z,68.30
2018-02-18T19:46:10.052Z,68.95
2018-02-18T19:48:36.445Z,79.53
2018-02-18T19:51:03.128Z,66.85
2018-02-18T19:53:30.025Z,62.88
2018-02-18T19:55:57.473Z,51.90
2018-02-18T19:58:23.931Z,54.03
2018-02-18T20:00:51.134Z,57.17
2018-02-18T20:03:19.304Z,61.97
2018-02-18T20:05:46.059Z,60.12
2018-02-18T20:08:12.900Z,52.60
2018-02-18T20:10:39.369Z,55.03
2018-02-18T20:13:05.919Z,53.08
2018-02-18T20:15:32.752Z,50.63
2018-02-18T20:18:00.967Z,51.08
2018-02-18T20:20:28.612Z,53.40
2018-02-18T20:22:55.745Z,49.20
2018-02-18T20:25:24.481Z,46.83
2018-02-18T20:27:54.549Z,48.38
2018-02-18T20:30:22.160Z,48.00
2018-02-18T20:32:49.028Z,45.25
2018-02-18T20:35:15.480Z,41.17
2018-02-18T20:37:41.859Z,40.25
2018-02-18T20:40:08.562Z,42.72
2018-02-18T20:42:37.308Z,44.08
2018-02-18T20:45:03.923Z,43.03
2018-02-18T20:47:30.623Z,40.17
2018-02-18T20:49:57.466Z,34.88
2018-02-18T20:52:24.937Z,35.40
2018-02-18T20:54:53.389Z,44.58
2018-02-18T20:57:19.929Z,40.28
2018-02-18T20:59:46.402Z,46.78
2018-02-18T21:02:14.463Z,41.50
2018-02-18T21:04:40.977Z,36.50
2018-02-18T21:07:12.453Z,38.67
2018-02-18T21:09:40.635Z,42.78
2018-02-18T21:12:07.955Z,37.95
2018-02-18T21:14:34.803Z,30.12
2018-02-18T21:17:01.353Z,29.27
2018-02-18T21:19:28.862Z,25.80
2018-02-18T21:21:56.395Z,31.10
2018-02-18T21:24:23.408Z,24.48
2018-02-18T21:26:51.670Z,31.33
2018-02-18T21:29:18.926Z,37.47
2018-02-18T21:31:45.551Z,27.42
2018-02-18T21:34:12.427Z,26.30
2018-02-18T21:36:38.856Z,29.00
2018-02-18T21:39:05.742Z,29.30
2018-02-18T21:41:32.520Z,25.98
2018-02-18T21:44:01.208Z,25.05
2018-02-18T21:46:27.804Z,25.05
2018-02-18T21:48:54.646Z,23.90
2018-02-18T21:51:21.441Z,26.73
2018-02-18T21:53:47.972Z,22.27
2018-02-18T21:56:16.106Z,24.70
2018-02-18T21:58:43.252Z,23.02
2018-02-18T22:01:09.717Z,22.35
2018-02-18T22:03:38.143Z,21.83
2018-02-18T22:06:04.615Z,20.12
2018-02-18T22:08:34.860Z,19.70
2018-02-18T22:11:01.696Z,22.95
2018-02-18T22:13:28.293Z,23.73
2018-02-18T22:15:55.084Z,24.80
2018-02-18T22:18:21.606Z,22.37
2018-02-18T22:20:48.184Z,24.00
2018-02-18T22:23:15.584Z,28.30
2018-02-18T22:25:43.693Z,23.17
2018-02-18T22:28:10.576Z,23.73
2018-02-18T22:30:37.078Z,25.55
2018-02-18T22:33:03.890Z,23.77
2018-02-18T22:35:31.104Z,26.67
2018-02-18T22:37:57.936Z,25.48
2018-02-18T22:40:24.712Z,23.52
2018-02-18T22:42:53.465Z,22.10
2018-02-18T22:45:19.962Z,24.17
2018-02-18T22:47:46.491Z,20.90
2018-02-18T22:50:14.008Z,19.50
2018-02-18T22:52:40.540Z,20.23
2018-02-18T22:55:08.360Z,19.75
2018-02-18T22:57:35.384Z,22.80
2018-02-18T23:00:02.306Z,22.65
2018-02-18T23:02:29.414Z,20.48
2018-02-18T23:05:02.316Z,20.58
2018-02-18T23:07:28.984Z,18.35
2018-02-18T23:09:56.405Z,20.80
2018-02-18T23:12:26.276Z,21.45
2018-02-18T23:14:52.805Z,23.10
2018-02-18T23:17:20.052Z,19.58
2018-02-18T23:19:46.493Z,22.65
2018-02-18T23:22:13.040Z,19.80
2018-02-18T23:24:41.153Z,18.52
2018-02-18T23:27:11.677Z,17.65
2018-02-18T23:29:39.091Z,19.12
2018-02-18T23:32:07.755Z,18.02
2018-02-18T23:34:34.664Z,17.35
2018-02-18T23:37:04.529Z,18.73
2018-02-18T23:39:31.066Z,17.45
2018-02-18T23:41:57.915Z,18.65
2018-02-18T23:44:24.748Z,16.42
2018-02-18T23:46:51.352Z,17.52
2018-02-18T23:49:18.440Z,18.25
2018-02-18T23:51:45.324Z,16.33
2018-02-18T23:54:15.176Z,15.40
2018-02-18T23:56:42.077Z,16.70
2018-02-18T23:59:12.264Z,16.65
